Time;durP1;ratioP1;P1;durP2;ratioP2;P2;SDS_P1;SDS_P2;PMS_P1;PMS_P2;Temp;Humidity;BMP_temperature;BMP_pressure;BME280_temperature;BME280_humidity;BME280_pressure;Samples;Min_cycle;Max_cycle;Signal;HPM_P1;HPM_P2
2020/12/05 00:02:40;;;;;;;24.70;16.90;;;;;;;3.93;88.33;99585.64;3486868;85;25785;-78
2020/12/05 00:07:42;;;;;;;23.93;18.43;;;;;;;3.99;88.15;99576.68;3476501;83;25747;-78
2020/12/05 00:12:43;;;;;;;23.60;17.27;;;;;;;3.97;88.39;99586.42;3564477;83;26826;-79
2020/12/05 00:17:45;;;;;;;23.20;15.95;;;;;;;4.08;87.49;99590.10;3564509;83;28798;-79
2020/12/05 00:22:46;;;;;;;19.60;14.93;;;;;;;4.08;87.59;99594.91;3564319;83;25792;-79
2020/12/05 00:27:47;;;;;;;20.43;16.57;;;;;;;4.17;87.09;99593.80;3564510;83;25786;-79
2020/12/05 00:32:48;;;;;;;19.43;15.73;;;;;;;4.18;86.94;99591.58;3564216;83;25745;-78
2020/12/05 00:37:49;;;;;;;24.97;16.13;;;;;;;4.17;87.01;99606.98;3564531;83;25829;-78
2020/12/05 00:42:50;;;;;;;21.90;16.27;;;;;;;4.15;87.07;99608.35;3564475;83;25804;-77
2020/12/05 00:47:51;;;;;;;19.00;14.80;;;;;;;4.16;87.18;99588.10;3568618;83;26167;-79
2020/12/05 00:52:52;;;;;;;18.63;15.37;;;;;;;4.26;86.74;99601.48;3572636;81;25911;-78
2020/12/05 00:57:53;;;;;;;22.13;16.50;;;;;;;4.17;87.16;99584.56;3569068;81;25742;-78
2020/12/05 01:02:54;;;;;;;20.33;14.90;;;;;;;4.19;87.13;99597.27;3568510;83;25648;-78
2020/12/05 01:07:55;;;;;;;21.97;16.20;;;;;;;4.16;87.34;99586.78;3561625;83;26306;-77
2020/12/05 01:12:56;;;;;;;19.57;15.03;;;;;;;4.29;86.51;99594.81;3527847;83;27491;-78
2020/12/05 01:17:57;;;;;;;20.60;16.33;;;;;;;4.26;86.79;99609.39;3527254;83;25788;-78
2020/12/05 01:22:58;;;;;;;23.73;16.13;;;;;;;4.21;86.89;99590.19;3527938;83;26056;-77
2020/12/05 01:27:59;;;;;;;21.27;15.28;;;;;;;4.14;87.40;99605.77;3530177;84;25715;-78
2020/12/05 01:33:00;;;;;;;20.67;15.33;;;;;;;4.16;87.27;99605.25;3530326;84;25879;-78
2020/12/05 01:38:01;;;;;;;17.57;13.87;;;;;;;4.24;86.78;99613.83;3486759;84;25778;-78
2020/12/05 01:43:02;;;;;;;17.63;14.20;;;;;;;4.22;86.93;99649.97;3553532;83;25793;-78
2020/12/05 01:48:03;;;;;;;19.20;15.23;;;;;;;4.19;87.11;99632.88;3486661;85;25859;-78
2020/12/05 01:53:04;;;;;;;19.40;14.87;;;;;;;4.10;87.90;99622.55;3557914;83;25573;-77
2020/12/05 01:58:05;;;;;;;17.62;13.95;;;;;;;4.06;88.17;99598.03;3487001;85;26127;-79
2020/12/05 02:03:07;;;;;;;17.27;13.23;;;;;;;4.09;88.18;99615.55;3553390;83;33248;-78
2020/12/05 02:08:15;;;;;;;18.80;14.17;;;;;;;4.17;87.82;99607.45;3486693;85;25871;-77
2020/12/05 02:13:30;;;;;;;18.67;14.50;;;;;;;4.15;88.03;99602.23;3553298;83;27688;-78
2020/12/05 02:18:33;;;;;;;15.88;13.10;;;;;;;4.12;88.13;99603.14;3487272;85;28085;-77
2020/12/05 02:23:34;;;;;;;19.20;14.13;;;;;;;4.10;88.56;99602.77;3556461;83;28147;-78
2020/12/05 02:28:35;;;;;;;16.53;13.03;;;;;;;4.05;89.18;99592.81;3487397;85;26262;-77
2020/12/05 02:33:36;;;;;;;16.97;12.90;;;;;;;4.14;88.62;99592.11;3529374;83;25744;-77
2020/12/05 02:38:45;;;;;;;17.83;13.57;;;;;;;4.19;88.49;99601.69;3487780;85;25759;-78
2020/12/05 02:43:47;;;;;;;19.17;13.47;;;;;;;4.12;88.86;99613.70;3556207;82;28384;-78
2020/12/05 02:48:48;;;;;;;16.77;13.33;;;;;;;4.14;88.62;99602.66;3491860;84;26162;-77
2020/12/05 02:53:50;;;;;;;17.53;13.47;;;;;;;4.12;89.11;99610.20;3558040;83;25704;-78
2020/12/05 02:58:51;;;;;;;16.77;13.27;;;;;;;4.17;88.70;99603.03;3555165;83;27748;-78
2020/12/05 03:03:52;;;;;;;17.27;13.03;;;;;;;4.21;88.62;99609.97;3487963;84;27512;-78
2020/12/05 03:08:53;;;;;;;17.00;13.43;;;;;;;4.23;88.47;99613.41;3554333;83;25728;-78
2020/12/05 03:13:54;;;;;;;13.73;11.40;;;;;;;4.18;88.78;99623.23;3553358;83;25805;-77
2020/12/05 03:18:55;;;;;;;15.30;12.30;;;;;;;4.19;88.90;99614.42;3557547;83;25793;-77
2020/12/05 03:23:56;;;;;;;14.50;11.77;;;;;;;4.30;88.21;99618.94;3489095;85;25811;-79
2020/12/05 03:28:58;;;;;;;15.47;12.93;;;;;;;4.38;88.00;99617.88;3553854;83;26648;-78
2020/12/05 03:34:00;;;;;;;15.87;13.57;;;;;;;4.41;87.68;99611.20;3487029;85;25815;-77
2020/12/05 03:39:01;;;;;;;16.37;12.53;;;;;;;4.48;87.21;99610.13;3553809;83;25834;-78
2020/12/05 03:44:03;;;;;;;11.83;9.87;;;;;;;4.51;87.21;99606.06;3553857;83;25812;-78
2020/12/05 03:49:04;;;;;;;13.57;11.97;;;;;;;4.68;85.90;99606.06;3554254;83;25725;-79
2020/12/05 03:54:05;;;;;;;14.47;11.63;;;;;;;4.67;85.93;99617.52;3488175;85;25721;-78
2020/12/05 03:59:07;;;;;;;16.27;12.33;;;;;;;4.58;86.42;99609.42;3554589;83;26238;-77
2020/12/05 04:04:08;;;;;;;13.23;10.73;;;;;;;4.57;86.58;99625.73;3488432;84;25964;-78
2020/12/05 04:09:09;;;;;;;15.53;11.77;;;;;;;4.61;86.57;99621.23;3555307;83;25517;-78
2020/12/05 04:14:11;;;;;;;14.73;12.57;;;;;;;4.58;86.76;99627.42;3487993;85;25936;-79
2020/12/05 04:19:11;;;;;;;14.93;12.00;;;;;;;4.56;86.96;99626.63;3555058;83;25482;-78
2020/12/05 04:24:12;;;;;;;13.13;11.13;;;;;;;4.50;87.50;99630.77;3553789;83;25901;-79
2020/12/05 04:29:13;;;;;;;13.97;11.33;;;;;;;4.51;87.32;99617.95;3553653;83;25848;-79
2020/12/05 04:34:14;;;;;;;14.03;11.07;;;;;;;4.61;86.94;99639.70;3486974;84;26249;-78
2020/12/05 04:39:15;;;;;;;14.07;11.60;;;;;;;4.62;87.00;99637.02;3553796;83;25936;-79
2020/12/05 04:44:17;;;;;;;11.35;10.15;;;;;;;4.61;86.99;99651.12;3486961;85;25771;-78
2020/12/05 04:49:20;;;;;;;12.83;10.93;;;;;;;4.57;87.34;99642.88;3553616;83;25826;-78
2020/12/05 04:54:25;;;;;;;12.83;10.30;;;;;;;4.53;87.82;99648.28;3486731;85;26359;-78
2020/12/05 04:59:26;;;;;;;;;;;;;;;4.63;87.45;99653.70;3556111;82;28247;-78
2020/12/05 05:04:27;;;;;;;14.10;11.40;;;;;;;4.66;87.10;99678.72;3556056;83;25768;-78
2020/12/05 05:09:29;;;;;;;14.27;11.47;;;;;;;4.67;87.14;99663.73;3492544;85;25630;-77
2020/12/05 05:14:32;;;;;;;14.97;12.80;;;;;;;4.62;87.49;99672.66;3554833;82;25807;-79
2020/12/05 05:19:35;;;;;;;14.67;11.80;;;;;;;4.54;88.09;99670.67;3474136;84;28574;-78
2020/12/05 05:24:36;;;;;;;16.93;12.33;;;;;;;4.55;88.11;99667.13;3525408;83;27549;-77
2020/12/05 05:29:42;;;;;;;14.97;11.77;;;;;;;4.50;88.51;99655.83;3531794;82;26373;-77
2020/12/05 05:34:46;;;;;;;16.60;12.23;;;;;;;4.50;88.63;99675.63;3606660;81;25984;-76
2020/12/05 05:39:51;;;;;;;15.03;11.63;;;;;;;4.47;88.91;99683.61;3605965;81;28016;-78
2020/12/05 05:44:52;;;;;;;13.83;11.73;;;;;;;4.49;89.02;99681.81;3610574;81;27847;-76
2020/12/05 05:49:52;;;;;;;14.70;10.87;;;;;;;4.56;88.61;99690.41;3606606;81;25736;-77
2020/12/05 05:54:54;;;;;;;12.87;11.33;;;;;;;4.63;88.46;99701.22;3612733;81;26893;-78
2020/12/05 05:59:55;;;;;;;15.23;11.70;;;;;;;4.66;87.98;99696.31;3612598;79;25610;-79
2020/12/05 06:04:56;;;;;;;12.90;10.40;;;;;;;4.58;88.69;99709.73;3620499;81;26096;-75
2020/12/05 06:09:57;;;;;;;12.83;10.87;;;;;;;4.63;88.35;99723.23;3589671;81;25577;-79
2020/12/05 06:14:58;;;;;;;15.77;12.53;;;;;;;4.69;88.10;99731.89;3629843;80;27032;-78
2020/12/05 06:19:59;;;;;;;13.37;11.50;;;;;;;4.61;88.53;99720.22;3609977;81;25823;-79
2020/12/05 06:25:12;;;;;;;14.53;11.20;;;;;;;4.55;89.07;99715.96;3600382;81;25653;-78
2020/12/05 06:30:14;;;;;;;11.33;9.43;;;;;;;4.52;89.18;99713.38;3590950;81;27529;-79
2020/12/05 06:35:23;;;;;;;12.70;10.97;;;;;;;4.57;88.93;99734.39;3610162;81;26193;-79
2020/12/05 06:40:26;;;;;;;15.30;11.50;;;;;;;4.65;88.65;99734.20;3601215;81;27467;-77
2020/12/05 06:45:35;;;;;;;11.97;10.07;;;;;;;4.74;88.18;99734.83;3585959;81;27700;-78
2020/12/05 06:50:42;;;;;;;14.57;11.73;;;;;;;4.76;88.00;99732.14;3590836;81;28287;-79
2020/12/05 06:55:43;;;;;;;14.53;12.07;;;;;;;4.74;88.17;99747.14;3590963;81;27596;-79
2020/12/05 07:00:44;;;;;;;12.57;10.97;;;;;;;4.75;88.17;99748.88;3598438;81;25795;-76
2020/12/05 07:05:46;;;;;;;12.43;10.70;;;;;;;4.80;87.92;99757.55;3609986;81;25917;-78
2020/12/05 07:11:07;;;;;;;13.53;10.43;;;;;;;4.79;87.92;99758.48;3592882;81;25687;-69
2020/12/05 07:16:16;;;;;;;12.77;10.80;;;;;;;4.82;87.95;99758.38;3621563;80;27455;-69
2020/12/05 07:21:17;;;;;;;14.30;11.93;;;;;;;4.87;87.42;99752.98;3628400;81;27792;-69
2020/12/05 07:26:19;;;;;;;14.80;12.20;;;;;;;4.88;87.58;99764.81;3633113;81;28231;-78
2020/12/05 07:31:20;;;;;;;14.93;11.80;;;;;;;4.93;87.40;99772.16;3623437;81;29770;-78
2020/12/05 07:36:22;;;;;;;12.50;11.20;;;;;;;4.93;87.74;99783.19;3624925;81;25838;-78
2020/12/05 07:41:23;;;;;;;14.97;11.57;;;;;;;5.05;87.35;99791.24;3636901;81;25823;-79
2020/12/05 07:46:24;;;;;;;13.40;11.33;;;;;;;5.10;86.78;99805.19;3628283;81;25681;-78
2020/12/05 07:51:25;;;;;;;15.07;11.80;;;;;;;5.11;86.66;99804.28;3635810;80;25435;-77
2020/12/05 07:56:26;;;;;;;14.53;12.57;;;;;;;5.09;86.63;99817.97;3642176;81;25767;-79
2020/12/05 08:01:59;;;;;;;14.27;11.90;;;;;;;5.12;86.80;99817.91;3640167;81;25963;-78
2020/12/05 08:07:06;;;;;;;16.67;13.30;;;;;;;5.19;86.32;99812.88;3640271;81;27485;-77
2020/12/05 08:12:14;;;;;;;14.13;12.43;;;;;;;5.24;86.25;99822.00;3621013;81;27485;-78
2020/12/05 08:17:15;;;;;;;15.90;11.53;;;;;;;5.24;86.37;99817.56;3610599;82;27656;-77
2020/12/05 08:22:17;;;;;;;17.27;13.27;;;;;;;5.28;86.31;99812.22;3606505;82;25787;-77
2020/12/05 08:27:19;;;;;;;13.53;11.33;;;;;;;5.33;86.25;99806.34;3606561;81;27507;-78
2020/12/05 08:32:23;;;;;;;16.43;13.90;;;;;;;5.45;85.83;99821.84;3606512;82;27508;-78
2020/12/05 08:37:26;;;;;;;16.27;12.57;;;;;;;5.53;85.48;99830.44;3606402;82;27179;-78
2020/12/05 08:42:27;;;;;;;17.03;13.77;;;;;;;5.56;85.48;99817.14;3606481;82;27553;-78
2020/12/05 08:47:28;;;;;;;16.57;13.43;;;;;;;5.57;85.53;99825.45;3606547;82;27453;-77
2020/12/05 08:52:32;;;;;;;21.47;14.50;;;;;;;5.55;85.68;99815.41;3605927;81;25860;-78
2020/12/05 08:57:32;;;;;;;15.93;13.90;;;;;;;5.59;85.56;99821.47;3590600;82;28356;-77
2020/12/05 09:02:35;;;;;;;18.27;13.97;;;;;;;5.70;85.26;99814.55;3608943;82;25721;-78
2020/12/05 09:07:36;;;;;;;15.40;13.27;;;;;;;5.75;84.78;99831.14;3606660;82;27500;-78
2020/12/05 09:12:37;;;;;;;14.80;12.37;;;;;;;5.82;84.55;99837.98;3627107;81;25926;-77
2020/12/05 09:17:38;;;;;;;16.20;12.20;;;;;;;5.88;84.20;99849.70;3640561;81;25760;-78
2020/12/05 09:22:55;;;;;;;14.57;12.10;;;;;;;5.98;83.67;99840.19;3640567;81;26058;-78
2020/12/05 09:27:58;;;;;;;16.20;12.77;;;;;;;6.13;83.36;99852.11;3640525;81;27509;-79
2020/12/05 09:33:03;;;;;;;17.80;13.53;;;;;;;6.25;82.95;99845.58;3640437;81;27530;-78
2020/12/05 09:38:05;;;;;;;14.43;12.93;;;;;;;6.36;82.46;99832.42;3638962;81;28093;-78
2020/12/05 09:43:14;;;;;;;14.27;11.87;;;;;;;6.51;82.26;99832.38;3672303;79;33268;-79
2020/12/05 09:48:15;;;;;;;16.47;13.53;;;;;;;6.54;81.71;99828.32;3617965;81;33910;-77
2020/12/05 09:53:16;;;;;;;15.23;13.50;;;;;;;6.69;80.92;99828.27;3617908;81;32966;-77
2020/12/05 09:58:17;;;;;;;15.87;12.67;;;;;;;6.79;80.86;99824.84;3617817;81;31077;-80
2020/12/05 10:03:18;;;;;;;16.83;13.33;;;;;;;6.95;79.99;99825.19;3617836;81;28623;-78
2020/12/05 10:08:19;;;;;;;15.83;12.88;;;;;;;7.12;79.36;99841.83;3617500;82;30618;-77
2020/12/05 10:13:20;;;;;;;16.50;13.43;;;;;;;7.34;78.82;99841.96;3617440;81;27214;-78
2020/12/05 10:18:21;;;;;;;12.63;11.33;;;;;;;7.63;77.67;99845.80;3617706;81;25750;-78
2020/12/05 10:23:22;;;;;;;14.68;12.23;;;;;;;7.92;76.07;99859.77;3617337;81;25818;-77
2020/12/05 10:28:23;;;;;;;14.77;13.27;;;;;;;8.13;75.38;99857.63;3617326;81;26213;-79
2020/12/05 10:33:25;;;;;;;14.73;13.07;;;;;;;8.07;75.02;99857.88;3617844;81;26242;-78
2020/12/05 10:38:26;;;;;;;13.93;11.27;;;;;;;8.04;75.80;99871.24;3616063;81;27231;-78
2020/12/05 10:43:27;;;;;;;13.27;11.93;;;;;;;8.13;75.29;99866.07;3557060;83;27283;-78
2020/12/05 10:48:28;;;;;;;15.63;12.80;;;;;;;8.71;73.63;99860.27;3557060;83;25743;-79
2020/12/05 10:53:29;;;;;;;14.17;12.67;;;;;;;9.16;71.81;99871.70;3556282;83;25830;-79
2020/12/05 10:58:30;;;;;;;13.93;12.47;;;;;;;9.78;69.53;99874.33;3556288;83;25741;-79
2020/12/05 11:03:31;;;;;;;14.03;12.53;;;;;;;14.55;52.92;99863.14;3556001;83;30315;-79
2020/12/05 11:08:32;;;;;;;15.00;13.27;;;;;;;17.31;44.38;99863.53;3556084;83;32483;-71
2020/12/05 11:13:33;;;;;;;16.33;14.50;;;;;;;17.92;41.73;99863.75;3556188;83;32507;-79
2020/12/05 11:18:34;;;;;;;14.37;12.97;;;;;;;18.60;40.99;99878.59;3556513;83;31602;-80
2020/12/05 11:23:35;;;;;;;16.07;14.57;;;;;;;19.73;37.36;99873.70;3556407;83;26741;-80
2020/12/05 11:28:37;;;;;;;16.70;15.20;;;;;;;20.69;36.48;99867.96;3557502;83;33200;-80
2020/12/05 11:33:38;;;;;;;15.55;14.23;;;;;;;21.15;35.45;99866.45;3557643;83;34884;-79
2020/12/05 11:38:39;;;;;;;17.02;15.30;;;;;;;19.48;37.59;99863.64;3557483;82;34785;-79
2020/12/05 11:43:40;;;;;;;15.90;14.53;;;;;;;19.54;37.61;99867.16;3529033;83;34887;-80
2020/12/05 11:48:41;;;;;;;15.25;13.85;;;;;;;19.30;37.62;99867.94;3528320;84;34902;-80
2020/12/05 11:53:42;;;;;;;15.75;14.35;;;;;;;16.53;43.40;99868.88;3528269;84;34920;-79
2020/12/05 11:58:43;;;;;;;14.85;13.53;;;;;;;14.99;47.58;99866.55;3528396;83;30589;-81
2020/12/05 12:03:44;;;;;;;14.90;13.60;;;;;;;13.77;51.36;99864.45;3528187;83;33017;-79
2020/12/05 12:08:47;;;;;;;14.90;13.50;;;;;;;13.76;51.92;99883.30;3530499;84;32585;-79
2020/12/05 12:13:48;;;;;;;14.87;13.37;;;;;;;14.80;49.43;99883.85;3531117;84;32393;-78
2020/12/05 12:18:53;;;;;;;14.33;13.03;;;;;;;13.49;53.10;99876.84;3532610;83;32574;-79
2020/12/05 12:23:53;;;;;;;14.57;13.20;;;;;;;14.94;49.60;99884.79;3530540;83;25784;-80
2020/12/05 12:28:54;;;;;;;14.28;12.88;;;;;;;14.47;50.77;99898.48;3529617;83;34794;-81
2020/12/05 12:33:55;;;;;;;14.00;12.70;;;;;;;13.09;54.37;99904.63;3529497;83;32555;-79
2020/12/05 12:38:56;;;;;;;14.07;12.63;;;;;;;11.95;58.07;99908.65;3530359;82;33082;-77
2020/12/05 12:43:57;;;;;;;14.43;13.03;;;;;;;11.02;62.63;99919.20;3557589;83;32670;-78
2020/12/05 12:48:59;;;;;;;13.50;12.00;;;;;;;10.57;65.33;99918.70;3559167;83;32611;-80
2020/12/05 12:53:59;;;;;;;14.07;12.20;;;;;;;10.21;67.43;99927.45;3555854;83;32598;-71
2020/12/05 12:59:00;;;;;;;13.47;12.17;;;;;;;9.89;69.21;99931.08;3555565;83;32573;-79
2020/12/05 13:04:02;;;;;;;12.10;10.97;;;;;;;9.74;70.47;99935.30;3555828;83;31225;-78
2020/12/05 13:09:03;;;;;;;12.77;11.40;;;;;;;9.61;71.35;99930.12;3555657;83;32718;-82
2020/12/05 13:14:04;;;;;;;14.43;12.93;;;;;;;9.48;72.29;99924.45;3555761;83;30230;-79
2020/12/05 13:19:05;;;;;;;13.40;12.03;;;;;;;9.44;72.83;99950.32;3555781;83;26283;-78
2020/12/05 13:24:06;;;;;;;15.03;13.37;;;;;;;9.43;73.22;99946.41;3555790;83;25868;-79
2020/12/05 13:29:07;;;;;;;14.13;12.63;;;;;;;9.35;73.93;99946.27;3559521;83;25790;-79
2020/12/05 13:34:08;;;;;;;14.33;12.57;;;;;;;9.29;74.40;99938.98;3559660;81;26026;-78
2020/12/05 13:39:10;;;;;;;15.67;13.00;;;;;;;9.26;74.79;99951.95;3559476;82;25891;-80
2020/12/05 13:44:11;;;;;;;17.73;12.83;;;;;;;9.23;75.20;99960.94;3556038;83;28006;-79
2020/12/05 13:49:12;;;;;;;13.87;12.37;;;;;;;9.22;75.50;99957.02;3555807;83;26242;-78
2020/12/05 13:54:13;;;;;;;15.50;12.60;;;;;;;9.17;75.98;99964.30;3555949;83;25795;-79
2020/12/05 13:59:14;;;;;;;17.00;13.30;;;;;;;9.14;76.40;99975.08;3555843;83;25773;-78
2020/12/05 14:04:15;;;;;;;20.40;16.83;;;;;;;9.15;76.62;99990.11;3555719;83;25881;-78
2020/12/05 14:09:16;;;;;;;17.30;15.47;;;;;;;9.11;77.02;100007.98;3555795;83;25966;-80
2020/12/05 14:14:18;;;;;;;20.30;16.97;;;;;;;9.08;77.33;100014.73;3555703;83;26185;-80
2020/12/05 14:19:19;;;;;;;16.17;14.23;;;;;;;9.07;77.62;100014.33;3555712;83;25716;-78
2020/12/05 14:24:20;;;;;;;18.10;15.43;;;;;;;9.04;77.83;100013.14;3555606;83;25688;-78
2020/12/05 14:29:21;;;;;;;20.13;17.93;;;;;;;9.01;78.21;100015.46;3555927;83;26005;-79
2020/12/05 14:34:24;;;;;;;17.57;14.17;;;;;;;8.98;78.76;100012.06;3555852;83;25781;-79
2020/12/05 14:39:26;;;;;;;17.30;15.40;;;;;;;9.01;78.66;100017.23;3555769;82;25880;-78
2020/12/05 14:44:27;;;;;;;20.10;17.20;;;;;;;9.02;78.65;100014.50;3557289;83;26189;-78
2020/12/05 14:49:28;;;;;;;20.13;16.93;;;;;;;8.99;78.93;100027.94;3558998;83;25728;-78
2020/12/05 14:54:29;;;;;;;20.68;17.73;;;;;;;8.92;79.36;100038.41;3558037;83;25844;-80
2020/12/05 14:59:30;;;;;;;19.57;17.47;;;;;;;8.87;79.78;100030.61;3555915;83;26039;-78
2020/12/05 15:04:31;;;;;;;22.40;19.07;;;;;;;8.90;79.77;100040.25;3555815;83;25765;-71
2020/12/05 15:09:32;;;;;;;23.87;19.63;;;;;;;8.79;80.36;100042.47;3555807;83;25823;-78
2020/12/05 15:14:33;;;;;;;20.27;17.57;;;;;;;8.79;80.65;100043.80;3555901;83;25997;-81
2020/12/05 15:19:34;;;;;;;20.23;18.00;;;;;;;8.81;80.60;100045.94;3555813;83;25922;-81
2020/12/05 15:24:36;;;;;;;21.93;18.37;;;;;;;8.81;80.82;100041.48;3457756;83;160853;-79
2020/12/05 15:29:37;;;;;;;18.90;15.67;;;;;;;8.80;80.86;100045.05;3413402;87;25740;-79
2020/12/05 15:34:38;;;;;;;22.17;18.53;;;;;;;8.75;81.32;100045.70;3413242;87;25790;-80
2020/12/05 15:39:39;;;;;;;22.25;19.85;;;;;;;8.71;81.83;100028.13;3413426;87;25802;-80
2020/12/05 15:44:40;;;;;;;24.43;20.63;;;;;;;8.67;82.04;100039.81;3477054;85;26018;-79
2020/12/05 15:49:41;;;;;;;21.10;18.47;;;;;;;8.66;82.43;100043.38;3479452;84;25900;-80
2020/12/05 15:54:42;;;;;;;24.23;19.13;;;;;;;8.69;82.32;100033.98;3479399;84;25870;-81
2020/12/05 15:59:43;;;;;;;26.43;19.90;;;;;;;8.74;82.35;100052.80;3479824;84;33380;-80
2020/12/05 16:04:44;;;;;;;25.17;21.30;;;;;;;8.80;82.23;100054.84;3479185;84;28799;-71
2020/12/05 16:09:46;;;;;;;27.67;21.60;;;;;;;8.77;82.45;100053.17;3479550;85;26845;-78
2020/12/05 16:14:47;;;;;;;23.50;17.07;;;;;;;8.72;82.99;100055.99;3479451;85;28318;-79
2020/12/05 16:19:48;;;;;;;26.20;20.37;;;;;;;8.73;83.28;100050.20;3479429;85;29314;-78
2020/12/05 16:24:49;;;;;;;20.63;17.37;;;;;;;8.67;83.78;100055.28;3479482;84;25814;-70
2020/12/05 16:29:50;;;;;;;29.23;23.13;;;;;;;8.73;83.68;100044.44;3479005;85;25774;-74
2020/12/05 16:34:52;;;;;;;22.23;18.53;;;;;;;8.73;83.92;100052.41;3478991;85;25769;-73
2020/12/05 16:39:54;;;;;;;21.75;19.02;;;;;;;8.70;84.13;100055.17;3478931;84;28245;-73
2020/12/05 16:44:55;;;;;;;22.93;17.30;;;;;;;8.63;84.61;100066.11;3476046;83;29271;-71
2020/12/05 16:49:56;;;;;;;24.40;19.47;;;;;;;8.52;85.69;100071.81;3475895;84;33248;-80
2020/12/05 16:54:57;;;;;;;26.60;22.77;;;;;;;8.44;86.37;100084.87;3476738;85;27464;-80
2020/12/05 16:59:58;;;;;;;23.33;20.47;;;;;;;8.33;87.17;100091.02;3478161;85;25845;-79
2020/12/05 17:04:59;;;;;;;25.50;20.90;;;;;;;8.33;87.81;100097.66;3478972;84;25901;-81
2020/12/05 17:10:00;;;;;;;22.80;18.83;;;;;;;8.35;87.97;100094.97;3476696;85;25805;-79
2020/12/05 17:15:01;;;;;;;22.80;18.82;;;;;;;8.39;88.13;100094.78;3476759;84;25778;-80
2020/12/05 17:20:03;;;;;;;23.07;19.77;;;;;;;8.29;89.12;100088.08;3479233;85;25798;-80
2020/12/05 17:25:04;;;;;;;27.23;20.80;;;;;;;8.22;89.79;100089.22;3479172;85;25934;-80
2020/12/05 17:30:06;;;;;;;22.73;19.00;;;;;;;8.09;91.33;100084.34;3476492;85;25860;-80
2020/12/05 17:35:07;;;;;;;25.63;21.73;;;;;;;8.08;92.05;100092.33;3476063;84;25866;-80
2020/12/05 17:40:08;;;;;;;30.23;25.03;;;;;;;8.10;92.49;100095.38;3478992;84;26282;-78
2020/12/05 17:45:09;;;;;;;28.93;23.97;;;;;;;8.08;92.59;100101.19;3430643;84;32756;-79
2020/12/05 17:50:11;;;;;;;28.13;21.90;;;;;;;8.07;93.23;100111.39;3420844;86;25770;-81
2020/12/05 17:55:14;;;;;;;25.30;22.03;;;;;;;8.06;93.88;100100.36;3423587;86;25910;-79
2020/12/05 18:00:14;;;;;;;27.47;23.30;;;;;;;8.04;94.10;100115.94;3424172;86;25741;-80
2020/12/05 18:05:16;;;;;;;27.50;23.07;;;;;;;8.02;94.59;100127.95;3421980;86;25785;-81
2020/12/05 18:10:18;;;;;;;29.37;23.52;;;;;;;7.95;95.18;100118.45;3420009;86;26590;-72
2020/12/05 18:15:19;;;;;;;26.60;21.23;;;;;;;7.91;96.01;100114.14;3418707;86;29574;-73
2020/12/05 18:20:20;;;;;;;26.83;23.23;;;;;;;7.90;96.55;100115.95;3418689;86;29705;-72
2020/12/05 18:25:21;;;;;;;29.20;24.00;;;;;;;7.89;96.76;100098.76;3418721;86;25787;-80
2020/12/05 18:30:23;;;;;;;24.97;21.80;;;;;;;7.84;97.51;100129.86;3421911;86;25827;-82
2020/12/05 18:35:24;;;;;;;28.73;23.50;;;;;;;7.77;98.02;100132.72;3420146;86;25839;-82
2020/12/05 18:40:25;;;;;;;26.07;22.27;;;;;;;7.69;99.15;100146.69;3402728;86;25782;-81
2020/12/05 18:45:26;;;;;;;28.90;23.20;;;;;;;7.64;99.44;100141.56;3466116;85;25823;-82
2020/12/05 18:50:27;;;;;;;26.00;21.60;;;;;;;7.66;99.86;100159.60;3476316;85;25773;-81
2020/12/05 18:55:29;;;;;;;25.50;20.80;;;;;;;7.63;100.00;100156.17;3477558;85;25899;-81
2020/12/05 19:00:29;;;;;;;25.93;20.87;;;;;;;7.57;100.00;100151.06;3478532;85;25869;-81
2020/12/05 19:05:32;;;;;;;28.23;22.93;;;;;;;7.49;100.00;100158.80;3476133;83;25797;-78
2020/12/05 19:10:33;;;;;;;29.87;22.80;;;;;;;7.45;100.00;100150.55;3478405;84;26427;-79
2020/12/05 19:15:34;;;;;;;28.83;22.97;;;;;;;7.45;100.00;100166.90;3478484;84;25841;-78
2020/12/05 19:20:36;;;;;;;27.90;21.87;;;;;;;7.46;100.00;100167.31;3478501;84;25917;-81
2020/12/05 19:25:37;;;;;;;30.90;23.87;;;;;;;7.42;100.00;100165.21;3477886;85;26377;-81
2020/12/05 19:30:38;;;;;;;31.13;24.47;;;;;;;7.34;100.00;100157.50;3464713;84;25909;-82
2020/12/05 19:35:39;;;;;;;28.98;23.85;;;;;;;7.30;100.00;100174.88;3465553;84;26083;-80
2020/12/05 19:40:40;;;;;;;26.60;21.60;;;;;;;7.27;100.00;100178.92;3455766;85;32602;-82
2020/12/05 19:45:42;;;;;;;27.53;21.93;;;;;;;7.36;100.00;100187.09;3474016;84;25875;-81
2020/12/05 19:50:43;;;;;;;28.70;23.50;;;;;;;7.29;100.00;100190.37;3481468;84;26013;-81
2020/12/05 19:55:44;;;;;;;25.03;21.40;;;;;;;7.21;100.00;100185.74;3462539;84;26217;-75
2020/12/05 20:00:45;;;;;;;25.90;21.90;;;;;;;7.16;100.00;100181.46;3471687;84;25956;-82
2020/12/05 20:05:46;;;;;;;25.23;20.37;;;;;;;7.14;100.00;100185.92;3470389;84;26857;-81
2020/12/05 20:10:51;;;;;;;26.57;23.27;;;;;;;7.15;100.00;100184.16;3471032;84;25841;-82
2020/12/05 20:15:52;;;;;;;27.80;21.50;;;;;;;7.09;100.00;100202.43;3465635;84;25893;-80
2020/12/05 20:20:53;;;;;;;24.53;20.50;;;;;;;7.02;100.00;100196.89;3473401;84;28241;-80
2020/12/05 20:25:54;;;;;;;28.17;22.00;;;;;;;7.08;100.00;100198.03;3477802;84;26328;-73
2020/12/05 20:30:57;;;;;;;22.17;19.40;;;;;;;7.11;100.00;100199.28;3473767;84;32885;-80
2020/12/05 20:35:58;;;;;;;24.90;20.70;;;;;;;6.99;100.00;100208.89;3481082;83;32958;-78
2020/12/05 20:40:59;;;;;;;24.10;20.30;;;;;;;6.97;100.00;100201.46;3473854;85;26515;-79
2020/12/05 20:46:02;;;;;;;25.77;20.53;;;;;;;6.98;100.00;100195.22;3476221;83;27704;-80
2020/12/05 20:51:04;;;;;;;25.60;20.40;;;;;;;6.94;100.00;100198.88;3478044;85;32903;-80
2020/12/05 20:56:07;;;;;;;26.43;19.63;;;;;;;6.86;100.00;100210.56;3476885;83;33366;-79
2020/12/05 21:01:09;;;;;;;25.83;20.40;;;;;;;6.81;100.00;100213.80;3475829;85;33458;-80
2020/12/05 21:06:10;;;;;;;24.97;18.80;;;;;;;6.86;100.00;100203.94;3477798;84;27156;-79
2020/12/05 21:11:11;;;;;;;23.07;18.63;;;;;;;6.86;100.00;100205.27;3476099;85;26768;-80
2020/12/05 21:16:12;;;;;;;24.07;20.30;;;;;;;6.78;100.00;100216.99;3476953;84;25780;-79
2020/12/05 21:21:16;;;;;;;28.20;21.90;;;;;;;6.74;100.00;100205.61;3479048;84;25844;-79
2020/12/05 21:26:17;;;;;;;24.10;20.53;;;;;;;6.74;100.00;100221.50;3476504;84;33010;-78
2020/12/05 21:31:18;;;;;;;21.33;17.73;;;;;;;6.73;100.00;100222.88;3474378;85;26289;-80
2020/12/05 21:36:24;;;;;;;24.27;20.30;;;;;;;6.70;100.00;100226.02;3478490;85;25842;-79
2020/12/05 21:41:25;;;;;;;28.10;21.77;;;;;;;6.56;100.00;100237.86;3478916;84;32870;-79
2020/12/05 21:46:26;;;;;;;22.77;19.70;;;;;;;6.54;100.00;100226.88;3433629;84;27474;-78
2020/12/05 21:51:27;;;;;;;24.17;19.30;;;;;;;6.55;100.00;100218.47;3421849;86;26206;-81
2020/12/05 21:56:28;;;;;;;27.70;22.03;;;;;;;6.58;100.00;100228.11;3421827;86;26220;-80
2020/12/05 22:01:30;;;;;;;26.67;21.20;;;;;;;6.54;100.00;100222.91;3421820;86;25850;-79
2020/12/05 22:06:31;;;;;;;25.20;21.07;;;;;;;6.42;100.00;100244.86;3420059;86;25679;-80
2020/12/05 22:11:32;;;;;;;25.83;21.13;;;;;;;6.40;100.00;100247.55;3418780;86;26353;-80
2020/12/05 22:16:33;;;;;;;23.13;20.13;;;;;;;6.40;100.00;100238.28;3417718;86;107434;-78
2020/12/05 22:21:34;;;;;;;28.97;23.30;;;;;;;6.35;100.00;100249.42;3414356;85;25752;-79
2020/12/05 22:26:36;;;;;;;23.33;19.63;;;;;;;6.32;100.00;100234.95;3426580;85;25825;-79
2020/12/05 22:31:37;;;;;;;23.37;20.60;;;;;;;6.26;100.00;100239.94;3413420;86;25928;-80
2020/12/05 22:36:38;;;;;;;27.02;23.67;;;;;;;6.28;100.00;100220.03;3417325;85;25836;-79
2020/12/05 22:41:39;;;;;;;30.27;25.43;;;;;;;6.24;100.00;100213.95;3414988;85;25849;-79
2020/12/05 22:46:40;;;;;;;28.10;24.67;;;;;;;6.19;100.00;100219.38;3429060;85;25792;-79
2020/12/05 22:51:41;;;;;;;23.27;20.77;;;;;;;6.13;100.00;100234.53;3422940;85;31046;-78
2020/12/05 22:56:42;;;;;;;28.17;22.57;;;;;;;6.16;100.00;100230.03;3418141;86;25850;-78
2020/12/05 23:01:43;;;;;;;26.93;22.13;;;;;;;6.18;100.00;100233.95;3419633;86;26324;-79
2020/12/05 23:06:44;;;;;;;28.73;23.93;;;;;;;6.16;100.00;100240.62;3414368;86;31175;-80
2020/12/05 23:11:48;;;;;;;26.80;21.57;;;;;;;6.08;100.00;100244.36;3416167;86;30983;-79